Time;durP1;ratioP1;P1;durP2;ratioP2;P2;SDS_P1;SDS_P2;PMS_P1;PMS_P2;Temp;Humidity;BMP_temperature;BMP_pressure;BME280_temperature;BME280_humidity;BME280_pressure;Samples;Min_cycle;Max_cycle;Signal;HPM_P1;HPM_P2
2021/12/27 00:02:22;;;;;;;39.17;21.85;;;;;;;;;;5029216;28;20017;-77
2021/12/27 00:04:48;;;;;;;33.20;20.40;;;;;;;;;;5031996;28;20014;-77
2021/12/27 00:07:15;;;;;;;37.28;20.95;;;;;;;;;;5031034;28;20034;-76
2021/12/27 00:09:41;;;;;;;34.42;21.02;;;;;;;;;;5029172;28;20033;-76
2021/12/27 00:12:07;;;;;;;36.83;21.65;;;;;;;;;;5032359;28;20037;-77
2021/12/27 00:14:33;;;;;;;36.90;19.70;;;;;;;;;;5030769;28;20032;-76
2021/12/27 00:17:00;;;;;;;35.78;21.20;;;;;;;;;;5023862;28;20364;-76
2021/12/27 00:19:26;;;;;;;39.38;20.58;;;;;;;;;;5030407;28;20026;-77
2021/12/27 00:21:52;;;;;;;37.22;21.38;;;;;;;;;;5031983;28;20036;-76
2021/12/27 00:24:18;;;;;;;37.00;20.55;;;;;;;;;;5033843;28;20033;-77
2021/12/27 00:26:48;;;;;;;35.28;19.88;;;;;;;;;;5032503;28;20031;-76
2021/12/27 00:29:15;;;;;;;34.72;19.92;;;;;;;;;;5030728;28;20079;-76
2021/12/27 00:31:42;;;;;;;35.70;20.35;;;;;;;;;;5026362;28;20045;-75
2021/12/27 00:34:08;;;;;;;37.63;20.75;;;;;;;;;;5029137;28;20029;-77
2021/12/27 00:36:34;;;;;;;33.08;19.85;;;;;;;;;;5028710;28;20061;-76
2021/12/27 00:39:00;;;;;;;35.25;20.65;;;;;;;;;;5031150;28;20447;-76
2021/12/27 00:41:26;;;;;;;37.60;20.60;;;;;;;;;;5029760;28;20057;-75
2021/12/27 00:43:52;;;;;;;34.83;19.80;;;;;;;;;;5030277;28;20113;-76
2021/12/27 00:46:18;;;;;;;36.40;21.38;;;;;;;;;;5031093;28;20029;-76
2021/12/27 00:48:44;;;;;;;36.53;21.38;;;;;;;;;;5030413;28;20036;-76
2021/12/27 00:51:10;;;;;;;35.63;20.20;;;;;;;;;;5029483;28;20029;-76
2021/12/27 00:53:36;;;;;;;39.60;21.42;;;;;;;;;;5031005;28;20025;-76
2021/12/27 00:56:02;;;;;;;37.55;20.33;;;;;;;;;;5031317;28;20025;-76
2021/12/27 00:58:28;;;;;;;39.92;21.77;;;;;;;;;;5030647;28;20018;-75
2021/12/27 01:00:54;;;;;;;37.05;22.25;;;;;;;;;;5030376;28;20383;-76
2021/12/27 01:03:20;;;;;;;41.88;22.60;;;;;;;;;;5029309;28;20033;-77
2021/12/27 01:05:47;;;;;;;36.80;21.77;;;;;;;;;;5029954;28;20029;-76
2021/12/27 01:08:13;;;;;;;40.03;21.98;;;;;;;;;;5031028;28;20025;-75
2021/12/27 01:18:05;;;;;;;38.15;21.50;;;;;;;;;;5029827;28;20699;-76
2021/12/27 01:20:31;;;;;;;42.20;22.02;;;;;;;;;;5030280;28;20345;-76
2021/12/27 01:22:57;;;;;;;39.80;21.52;;;;;;;;;;5025066;28;20391;-76
2021/12/27 01:25:23;;;;;;;36.70;20.63;;;;;;;;;;5025676;28;20096;-75
2021/12/27 01:27:53;;;;;;;39.65;21.90;;;;;;;;;;5030681;28;20067;-76
2021/12/27 01:30:20;;;;;;;39.97;22.02;;;;;;;;;;5029840;28;20025;-75
2021/12/27 01:32:54;;;;;;;40.72;21.40;;;;;;;;;;5030047;28;20033;-76
2021/12/27 01:35:21;;;;;;;40.47;21.73;;;;;;;;;;5030500;28;20075;-76
2021/12/27 01:37:49;;;;;;;35.58;20.65;;;;;;;;;;5029746;28;20024;-76
2021/12/27 01:40:16;;;;;;;38.63;20.52;;;;;;;;;;5030155;28;20025;-76
2021/12/27 01:43:00;;;;;;;42.75;23.15;;;;;;;;;;5019974;28;20053;-76
2021/12/27 01:45:27;;;;;;;36.50;22.42;;;;;;;;;;5029433;28;20013;-76
2021/12/27 01:47:53;;;;;;;38.85;21.67;;;;;;;;;;5028206;28;20029;-76
2021/12/27 01:50:19;;;;;;;36.85;22.33;;;;;;;;;;5029982;28;20139;-76
2021/12/27 01:52:45;;;;;;;40.75;22.48;;;;;;;;;;5030864;28;20387;-75
2021/12/27 01:55:11;;;;;;;37.35;21.77;;;;;;;;;;5033643;28;20076;-77
2021/12/27 01:57:37;;;;;;;37.80;21.20;;;;;;;;;;5034161;28;20029;-76
2021/12/27 02:00:05;;;;;;;42.65;21.55;;;;;;;;;;5033663;28;20083;-76
2021/12/27 02:02:31;;;;;;;40.65;21.17;;;;;;;;;;5033369;28;20431;-76
2021/12/27 02:04:57;;;;;;;39.63;22.25;;;;;;;;;;5033709;28;20028;-75
2021/12/27 02:07:23;;;;;;;44.15;22.17;;;;;;;;;;5033545;28;20021;-76
2021/12/27 02:10:01;;;;;;;42.97;22.45;;;;;;;;;;5033794;28;20152;-75
2021/12/27 02:12:27;;;;;;;44.03;23.20;;;;;;;;;;5031905;28;20582;-76
2021/12/27 02:14:54;;;;;;;41.10;24.95;;;;;;;;;;5033326;28;20040;-75
2021/12/27 02:17:21;;;;;;;41.03;23.27;;;;;;;;;;5033582;28;20036;-78
2021/12/27 02:19:47;;;;;;;39.35;22.38;;;;;;;;;;5031255;28;20033;-76
2021/12/27 02:22:13;;;;;;;39.60;23.15;;;;;;;;;;5032783;28;20482;-76
2021/12/27 02:24:40;;;;;;;39.85;22.75;;;;;;;;;;5033744;28;20476;-75
2021/12/27 02:27:06;;;;;;;43.40;23.55;;;;;;;;;;5033471;28;20029;-75
2021/12/27 02:29:32;;;;;;;43.42;22.15;;;;;;;;;;5032970;28;20041;-75
2021/12/27 02:31:58;;;;;;;41.97;23.15;;;;;;;;;;5030405;28;20049;-76
2021/12/27 02:34:24;;;;;;;41.50;23.63;;;;;;;;;;5033372;28;20029;-75
2021/12/27 02:36:50;;;;;;;44.15;23.98;;;;;;;;;;5032862;28;20087;-76
2021/12/27 02:39:17;;;;;;;42.22;24.00;;;;;;;;;;5033545;28;20387;-75
2021/12/27 02:41:43;;;;;;;45.22;24.33;;;;;;;;;;5033043;28;20565;-76
2021/12/27 02:44:09;;;;;;;39.65;23.48;;;;;;;;;;5032891;28;20053;-76
2021/12/27 02:46:35;;;;;;;37.00;21.45;;;;;;;;;;5033131;28;20431;-75
2021/12/27 02:49:01;;;;;;;42.75;22.95;;;;;;;;;;5031851;28;20071;-77
2021/12/27 02:51:27;;;;;;;40.15;22.73;;;;;;;;;;5027668;28;20029;-77
2021/12/27 02:53:53;;;;;;;39.40;23.45;;;;;;;;;;5020906;28;20083;-75
2021/12/27 02:56:20;;;;;;;39.92;22.73;;;;;;;;;;5027430;28;20466;-75
2021/12/27 02:58:46;;;;;;;38.35;22.42;;;;;;;;;;5033006;28;20032;-76
2021/12/27 03:01:14;;;;;;;37.90;21.67;;;;;;;;;;5032413;28;20028;-76
2021/12/27 03:03:40;;;;;;;31.75;20.38;;;;;;;;;;5033362;28;20480;-77
2021/12/27 03:06:07;;;;;;;42.70;22.80;;;;;;;;;;5032223;28;20030;-76
2021/12/27 03:08:33;;;;;;;38.90;22.80;;;;;;;;;;5031506;28;20103;-78
2021/12/27 03:11:00;;;;;;;37.85;21.38;;;;;;;;;;5032456;28;20401;-77
2021/12/27 03:13:30;;;;;;;43.40;23.40;;;;;;;;;;5032623;28;20484;-75
2021/12/27 03:15:58;;;;;;;44.72;23.67;;;;;;;;;;5028125;28;20395;-75
2021/12/27 03:18:24;;;;;;;39.83;21.88;;;;;;;;;;5031110;28;20116;-77
2021/12/27 03:20:51;;;;;;;44.47;24.52;;;;;;;;;;5031387;28;20053;-76
2021/12/27 03:23:17;;;;;;;41.78;23.42;;;;;;;;;;5030918;28;20013;-77
2021/12/27 03:25:43;;;;;;;41.00;23.90;;;;;;;;;;5032575;28;20037;-77
2021/12/27 03:28:09;;;;;;;43.92;23.88;;;;;;;;;;5032418;28;20044;-76
2021/12/27 03:30:36;;;;;;;41.88;24.33;;;;;;;;;;5030920;28;20052;-75
2021/12/27 03:33:03;;;;;;;43.70;21.90;;;;;;;;;;5032483;28;20111;-77
2021/12/27 03:35:35;;;;;;;37.20;22.20;;;;;;;;;;5032265;28;20025;-76
2021/12/27 03:38:01;;;;;;;43.60;24.35;;;;;;;;;;5031644;28;20021;-76
2021/12/27 03:40:28;;;;;;;44.20;23.67;;;;;;;;;;5030537;28;20025;-75
2021/12/27 03:42:54;;;;;;;40.72;23.40;;;;;;;;;;5031758;28;20017;-76
2021/12/27 03:45:22;;;;;;;43.88;22.70;;;;;;;;;;5032254;28;20127;-77
2021/12/27 03:47:49;;;;;;;40.83;23.42;;;;;;;;;;5030775;28;20026;-75
2021/12/27 03:50:15;;;;;;;41.13;23.35;;;;;;;;;;5023162;28;20058;-75
2021/12/27 03:52:41;;;;;;;45.03;24.35;;;;;;;;;;5018609;28;20029;-77
2021/12/27 03:55:08;;;;;;;41.58;22.58;;;;;;;;;;5031784;28;20480;-75
2021/12/27 03:57:36;;;;;;;41.42;22.70;;;;;;;;;;5031842;28;20033;-75
2021/12/27 04:02:41;;;;;;;42.95;24.80;;;;;;;;;;5027187;28;20128;-75
2021/12/27 04:05:09;;;;;;;43.90;24.85;;;;;;;;;;5031851;28;20523;-75
2021/12/27 04:07:35;;;;;;;43.08;23.95;;;;;;;;;;5030615;28;20101;-76
2021/12/27 04:10:01;;;;;;;49.15;25.23;;;;;;;;;;5031175;28;20529;-76
2021/12/27 04:12:27;;;;;;;43.72;24.40;;;;;;;;;;5031262;28;20065;-76
2021/12/27 04:14:55;;;;;;;40.28;23.98;;;;;;;;;;5031440;28;20036;-76
2021/12/27 04:17:21;;;;;;;44.05;24.83;;;;;;;;;;5031151;28;20025;-76
2021/12/27 04:19:47;;;;;;;38.67;22.95;;;;;;;;;;5032057;28;20032;-77
2021/12/27 04:22:13;;;;;;;36.90;22.85;;;;;;;;;;5032384;28;20029;-77
2021/12/27 04:24:39;;;;;;;45.42;24.70;;;;;;;;;;5032495;28;20033;-77
2021/12/27 04:27:05;;;;;;;40.63;24.75;;;;;;;;;;5032331;28;20025;-76
2021/12/27 04:29:31;;;;;;;44.35;25.02;;;;;;;;;;5031900;28;20094;-77
2021/12/27 04:31:58;;;;;;;41.55;25.10;;;;;;;;;;5031810;28;20479;-77
2021/12/27 04:34:24;;;;;;;42.40;23.40;;;;;;;;;;5032253;28;20072;-77
2021/12/27 04:36:50;;;;;;;40.38;23.52;;;;;;;;;;5030856;28;20040;-77
2021/12/27 04:39:16;;;;;;;41.83;24.30;;;;;;;;;;5031946;28;20025;-77
2021/12/27 04:41:42;;;;;;;46.13;25.50;;;;;;;;;;5031558;28;20044;-77
2021/12/27 04:44:08;;;;;;;47.47;25.05;;;;;;;;;;5031201;28;20103;-76
2021/12/27 04:46:34;;;;;;;45.83;25.15;;;;;;;;;;5031485;28;20128;-77
2021/12/27 04:49:00;;;;;;;45.80;26.33;;;;;;;;;;5030636;28;20447;-77
2021/12/27 04:51:27;;;;;;;41.08;24.30;;;;;;;;;;5029966;28;20422;-77
2021/12/27 04:53:53;;;;;;;41.45;23.30;;;;;;;;;;5031609;28;20029;-77
2021/12/27 04:56:19;;;;;;;40.40;25.08;;;;;;;;;;5039629;28;20075;-77
2021/12/27 04:58:46;;;;;;;45.25;26.00;;;;;;;;;;5040436;28;20021;-77
2021/12/27 05:01:12;;;;;;;47.92;24.90;;;;;;;;;;5041560;28;20024;-77
2021/12/27 05:03:38;;;;;;;41.38;24.85;;;;;;;;;;5038452;28;20025;-77
2021/12/27 05:06:05;;;;;;;43.28;25.80;;;;;;;;;;5033196;28;20029;-77
2021/12/27 05:08:31;;;;;;;43.10;24.70;;;;;;;;;;5030967;28;20067;-77
2021/12/27 05:10:57;;;;;;;42.80;24.60;;;;;;;;;;5031325;28;20033;-77
2021/12/27 05:13:23;;;;;;;42.13;23.67;;;;;;;;;;5036843;28;20359;-77
2021/12/27 05:15:49;;;;;;;45.30;27.15;;;;;;;;;;5031431;28;20037;-77
2021/12/27 05:18:15;;;;;;;46.72;25.58;;;;;;;;;;5030108;28;20025;-76
2021/12/27 05:20:41;;;;;;;46.47;25.75;;;;;;;;;;5028338;28;20021;-77
2021/12/27 05:23:07;;;;;;;47.03;25.15;;;;;;;;;;5039615;28;20104;-76
2021/12/27 05:25:33;;;;;;;44.65;26.58;;;;;;;;;;5029298;28;20022;-77
2021/12/27 05:27:59;;;;;;;46.30;26.23;;;;;;;;;;5034218;28;20032;-77
2021/12/27 05:30:25;;;;;;;51.67;25.92;;;;;;;;;;5036491;28;20428;-77
2021/12/27 05:32:51;;;;;;;43.38;25.67;;;;;;;;;;5038266;28;20037;-77
2021/12/27 05:35:17;;;;;;;47.60;28.33;;;;;;;;;;5037057;28;20025;-77
2021/12/27 05:37:44;;;;;;;52.75;26.77;;;;;;;;;;5037366;28;20106;-77
2021/12/27 05:40:13;;;;;;;49.13;27.60;;;;;;;;;;5027428;28;20030;-77
2021/12/27 05:42:39;;;;;;;46.20;26.42;;;;;;;;;;5018456;28;20029;-76
2021/12/27 05:45:06;;;;;;;43.05;27.30;;;;;;;;;;5032649;28;20100;-77
2021/12/27 05:47:32;;;;;;;50.00;28.08;;;;;;;;;;5037095;28;20097;-77
2021/12/27 05:49:58;;;;;;;44.95;26.60;;;;;;;;;;5036319;28;20049;-77
2021/12/27 05:52:24;;;;;;;43.92;27.27;;;;;;;;;;5045272;28;20041;-77
2021/12/27 05:54:50;;;;;;;49.35;26.73;;;;;;;;;;5044939;28;20040;-77
2021/12/27 05:57:16;;;;;;;46.00;25.80;;;;;;;;;;5038326;28;20037;-77
2021/12/27 05:59:42;;;;;;;49.28;26.85;;;;;;;;;;5037949;28;20486;-77
2021/12/27 06:02:08;;;;;;;52.05;29.23;;;;;;;;;;5038377;28;20079;-77
2021/12/27 06:04:34;;;;;;;46.38;26.83;;;;;;;;;;5038301;28;20022;-77
2021/12/27 06:07:03;;;;;;;51.45;27.90;;;;;;;;;;5036937;28;20049;-78
2021/12/27 06:09:29;;;;;;;51.67;27.20;;;;;;;;;;5036029;28;20017;-77
2021/12/27 06:11:55;;;;;;;44.97;25.67;;;;;;;;;;5037231;28;20047;-77
2021/12/27 06:14:21;;;;;;;47.85;27.48;;;;;;;;;;5038206;28;20030;-77
2021/12/27 06:16:47;;;;;;;45.33;26.23;;;;;;;;;;5036621;28;20036;-77
2021/12/27 06:19:13;;;;;;;53.80;28.10;;;;;;;;;;5036997;28;20030;-77
2021/12/27 06:21:39;;;;;;;45.70;25.83;;;;;;;;;;5035010;28;20032;-77
2021/12/27 06:24:05;;;;;;;46.90;26.40;;;;;;;;;;5032649;28;20017;-77
2021/12/27 06:26:31;;;;;;;41.90;26.33;;;;;;;;;;5034777;28;20025;-77
2021/12/27 06:28:57;;;;;;;45.63;26.25;;;;;;;;;;5029534;28;20033;-77
2021/12/27 06:31:23;;;;;;;46.03;27.13;;;;;;;;;;5035969;28;20067;-77
2021/12/27 06:33:49;;;;;;;46.35;27.52;;;;;;;;;;5036687;28;20049;-77
2021/12/27 06:36:15;;;;;;;44.33;26.80;;;;;;;;;;5038220;28;20258;-77
2021/12/27 06:38:41;;;;;;;48.80;27.25;;;;;;;;;;5037426;28;20135;-77
2021/12/27 06:41:07;;;;;;;44.22;26.55;;;;;;;;;;5036046;28;20030;-77
2021/12/27 06:43:33;;;;;;;48.42;26.77;;;;;;;;;;5035528;28;20075;-77
2021/12/27 06:46:00;;;;;;;44.13;26.35;;;;;;;;;;5034316;28;20022;-77
2021/12/27 06:48:27;;;;;;;44.50;26.63;;;;;;;;;;5035467;28;20396;-78
2021/12/27 06:50:53;;;;;;;44.05;26.55;;;;;;;;;;5036511;28;20026;-77
2021/12/27 06:53:20;;;;;;;41.90;25.50;;;;;;;;;;5037361;28;20044;-77
2021/12/27 06:55:46;;;;;;;45.13;26.95;;;;;;;;;;5039326;28;20033;-77
2021/12/27 06:58:13;;;;;;;45.80;25.25;;;;;;;;;;5038025;28;20059;-77
2021/12/27 07:00:39;;;;;;;49.63;28.83;;;;;;;;;;5040038;28;20438;-78
2021/12/27 07:03:05;;;;;;;44.55;25.75;;;;;;;;;;5038799;28;20021;-77
2021/12/27 07:05:31;;;;;;;46.03;26.90;;;;;;;;;;5037527;28;20029;-77
2021/12/27 07:07:57;;;;;;;43.88;26.75;;;;;;;;;;5035895;28;20037;-77
2021/12/27 07:10:23;;;;;;;48.47;27.75;;;;;;;;;;5034689;28;20026;-77
2021/12/27 07:12:50;;;;;;;48.67;27.33;;;;;;;;;;5035302;28;20026;-77
2021/12/27 07:15:17;;;;;;;46.40;26.27;;;;;;;;;;5048814;28;20104;-77
2021/12/27 07:17:43;;;;;;;46.78;26.95;;;;;;;;;;5040429;28;20025;-77
2021/12/27 07:20:09;;;;;;;43.50;25.50;;;;;;;;;;5033820;28;20099;-76
2021/12/27 07:22:35;;;;;;;44.65;26.95;;;;;;;;;;5032369;28;20079;-77
2021/12/27 07:25:02;;;;;;;43.83;25.73;;;;;;;;;;5033367;28;20029;-78
2021/12/27 07:27:28;;;;;;;42.97;26.75;;;;;;;;;;5026943;28;20109;-77
2021/12/27 07:29:54;;;;;;;48.88;25.70;;;;;;;;;;5030508;28;20037;-77
2021/12/27 07:32:20;;;;;;;44.58;25.38;;;;;;;;;;5031188;28;20503;-77
2021/12/27 07:34:48;;;;;;;45.08;26.30;;;;;;;;;;5033879;28;20480;-77
2021/12/27 07:37:16;;;;;;;49.20;27.95;;;;;;;;;;5027044;28;20034;-76
2021/12/27 07:39:42;;;;;;;45.42;26.20;;;;;;;;;;5025256;28;20049;-77
2021/12/27 07:42:08;;;;;;;45.15;25.77;;;;;;;;;;5025469;28;20404;-77
2021/12/27 07:44:34;;;;;;;42.13;24.65;;;;;;;;;;5030150;28;20029;-76
2021/12/27 07:47:00;;;;;;;45.47;27.00;;;;;;;;;;5032443;28;20111;-77
2021/12/27 07:49:26;;;;;;;48.08;26.27;;;;;;;;;;5031603;28;20021;-77
2021/12/27 07:51:52;;;;;;;45.30;26.35;;;;;;;;;;5041752;28;20033;-77
2021/12/27 07:54:18;;;;;;;42.30;25.73;;;;;;;;;;5033439;28;20056;-77
2021/12/27 07:56:44;;;;;;;46.45;25.23;;;;;;;;;;5032666;28;20517;-77
2021/12/27 07:59:10;;;;;;;46.00;27.20;;;;;;;;;;5027259;28;20072;-77
2021/12/27 08:01:37;;;;;;;43.30;25.98;;;;;;;;;;5031353;28;20024;-77
2021/12/27 08:04:04;;;;;;;43.85;25.55;;;;;;;;;;5024318;28;20152;-77
2021/12/27 08:06:31;;;;;;;37.78;23.40;;;;;;;;;;5025481;28;20096;-77
2021/12/27 08:08:57;;;;;;;39.72;24.67;;;;;;;;;;5030782;28;20116;-77
2021/12/27 08:11:24;;;;;;;38.90;23.17;;;;;;;;;;5032928;28;20048;-77
2021/12/27 08:13:50;;;;;;;36.17;22.33;;;;;;;;;;5030568;28;20052;-77
2021/12/27 08:16:17;;;;;;;40.78;23.30;;;;;;;;;;5031751;28;20132;-77
2021/12/27 08:18:46;;;;;;;34.70;22.50;;;;;;;;;;5030719;28;20482;-76
2021/12/27 08:21:13;;;;;;;37.10;21.67;;;;;;;;;;5025946;28;20025;-76
2021/12/27 08:23:39;;;;;;;42.20;23.08;;;;;;;;;;5024768;28;20032;-77
2021/12/27 08:26:05;;;;;;;32.80;20.63;;;;;;;;;;5024715;28;20075;-76
2021/12/27 08:28:31;;;;;;;34.00;19.88;;;;;;;;;;5025010;28;20037;-77
2021/12/27 08:30:57;;;;;;;33.22;19.95;;;;;;;;;;5028856;28;20077;-76
2021/12/27 08:33:23;;;;;;;36.20;19.38;;;;;;;;;;5024884;28;20534;-77
2021/12/27 08:35:49;;;;;;;38.85;20.70;;;;;;;;;;5024235;28;20029;-76
2021/12/27 08:38:18;;;;;;;32.35;21.70;;;;;;;;;;5028098;28;20057;-77
2021/12/27 08:40:44;;;;;;;32.95;20.75;;;;;;;;;;5032001;28;20025;-77
2021/12/27 08:43:10;;;;;;;33.95;20.75;;;;;;;;;;5029093;28;20112;-77
2021/12/27 08:45:36;;;;;;;31.05;19.27;;;;;;;;;;5026074;28;20057;-76
2021/12/27 08:48:02;;;;;;;30.40;19.13;;;;;;;;;;5030815;28;20167;-76
2021/12/27 08:50:28;;;;;;;30.17;19.73;;;;;;;;;;5026191;28;20489;-77
2021/12/27 08:52:54;;;;;;;29.88;18.08;;;;;;;;;;5027190;28;20480;-77
2021/12/27 08:55:20;;;;;;;36.80;25.08;;;;;;;;;;5024365;28;20534;-76
2021/12/27 08:57:46;;;;;;;38.53;20.30;;;;;;;;;;5023372;28;20405;-77
2021/12/27 09:00:15;;;;;;;31.08;18.92;;;;;;;;;;5023895;28;20183;-76
2021/12/27 09:02:41;;;;;;;30.95;23.25;;;;;;;;;;5026279;28;20029;-77
2021/12/27 09:05:07;;;;;;;28.77;18.17;;;;;;;;;;5032990;28;20056;-77
2021/12/27 09:07:33;;;;;;;28.13;17.48;;;;;;;;;;5032650;28;20040;-77
2021/12/27 09:09:59;;;;;;;29.65;17.05;;;;;;;;;;5030685;28;20018;-77
2021/12/27 09:12:25;;;;;;;30.13;15.93;;;;;;;;;;5030726;28;20038;-78
2021/12/27 09:14:51;;;;;;;23.70;15.73;;;;;;;;;;5031620;28;20029;-77
2021/12/27 09:17:18;;;;;;;26.05;15.57;;;;;;;;;;5029593;28;20108;-77
2021/12/27 09:19:44;;;;;;;30.70;16.70;;;;;;;;;;5025249;28;20029;-77
2021/12/27 09:22:13;;;;;;;23.88;13.88;;;;;;;;;;5032050;28;20068;-77
2021/12/27 09:24:39;;;;;;;22.98;13.15;;;;;;;;;;5027977;28;20028;-77
2021/12/27 09:27:05;;;;;;;23.08;12.77;;;;;;;;;;5029299;28;20029;-77
2021/12/27 09:29:31;;;;;;;19.02;12.73;;;;;;;;;;5029913;28;20025;-76
2021/12/27 09:31:57;;;;;;;21.02;13.60;;;;;;;;;;5020049;28;20562;-77
2021/12/27 09:34:23;;;;;;;24.10;13.98;;;;;;;;;;5027232;28;20040;-77
2021/12/27 09:36:49;;;;;;;21.80;13.20;;;;;;;;;;5031666;28;20031;-78
2021/12/27 09:39:15;;;;;;;21.17;13.55;;;;;;;;;;5029596;28;20037;-77
2021/12/27 09:41:41;;;;;;;19.17;13.18;;;;;;;;;;5029328;28;20127;-77
2021/12/27 09:44:07;;;;;;;23.15;12.90;;;;;;;;;;5027192;28;20029;-77
2021/12/27 09:46:34;;;;;;;19.45;12.90;;;;;;;;;;5027251;28;20029;-77
2021/12/27 09:49:03;;;;;;;24.55;14.48;;;;;;;;;;5029690;28;20110;-77
2021/12/27 09:51:30;;;;;;;22.42;14.52;;;;;;;;;;5026487;28;20022;-77
2021/12/27 09:53:56;;;;;;;27.27;14.35;;;;;;;;;;5030755;28;20644;-77
2021/12/27 09:56:22;;;;;;;22.60;13.88;;;;;;;;;;5037223;28;20044;-75
2021/12/27 09:58:48;;;;;;;23.30;13.30;;;;;;;;;;5043481;28;20053;-77
2021/12/27 10:01:14;;;;;;;25.33;13.93;;;;;;;;;;5041537;28;20026;-77
2021/12/27 10:03:48;;;;;;;23.85;14.05;;;;;;;;;;5031792;28;20044;-76
2021/12/27 10:06:15;;;;;;;22.70;13.70;;;;;;;;;;5026211;28;20108;-78
2021/12/27 10:08:45;;;;;;;22.63;14.13;;;;;;;;;;5028479;28;20044;-76
2021/12/27 10:11:21;;;;;;;26.95;14.63;;;;;;;;;;5027510;28;20025;-78
2021/12/27 10:13:59;;;;;;;20.85;14.68;;;;;;;;;;5030300;28;20063;-76
2021/12/27 10:16:26;;;;;;;22.45;14.90;;;;;;;;;;5020954;28;20031;-77
2021/12/27 10:18:56;;;;;;;23.27;13.38;;;;;;;;;;5032710;28;20030;-76
2021/12/27 10:21:22;;;;;;;23.85;14.23;;;;;;;;;;5028575;28;20502;-76
2021/12/27 10:23:48;;;;;;;22.92;14.55;;;;;;;;;;5033273;28;20337;-76
2021/12/27 10:26:18;;;;;;;22.63;13.98;;;;;;;;;;5031991;28;20468;-77
2021/12/27 10:28:44;;;;;;;24.30;13.85;;;;;;;;;;5031062;28;20395;-76
2021/12/27 10:31:10;;;;;;;24.45;15.15;;;;;;;;;;5030990;28;20068;-77
2021/12/27 10:33:36;;;;;;;23.42;15.65;;;;;;;;;;5035999;28;20037;-78
2021/12/27 10:36:02;;;;;;;25.00;14.38;;;;;;;;;;5027688;28;20396;-77
2021/12/27 10:38:31;;;;;;;22.08;14.65;;;;;;;;;;5029162;28;20167;-77
2021/12/27 10:40:59;;;;;;;21.60;14.35;;;;;;;;;;5032003;28;20396;-77
2021/12/27 10:43:38;;;;;;;24.52;13.23;;;;;;;;;;5031859;28;20479;-76
2021/12/27 10:46:05;;;;;;;22.90;15.48;;;;;;;;;;5024397;28;20017;-76
2021/12/27 10:48:34;;;;;;;31.38;14.55;;;;;;;;;;5029620;28;20053;-76
2021/12/27 10:51:01;;;;;;;22.60;13.02;;;;;;;;;;5032943;28;20044;-78
2021/12/27 10:53:27;;;;;;;22.05;14.27;;;;;;;;;;5031146;28;20123;-76
2021/12/27 10:55:54;;;;;;;27.52;14.80;;;;;;;;;;5033854;28;20067;-79
2021/12/27 10:58:22;;;;;;;26.75;14.07;;;;;;;;;;5035562;28;20095;-76
2021/12/27 11:00:55;;;;;;;24.05;14.88;;;;;;;;;;5039035;28;20036;-79
2021/12/27 11:03:25;;;;;;;27.10;14.90;;;;;;;;;;5030506;28;20026;-78
2021/12/27 11:05:51;;;;;;;25.35;14.35;;;;;;;;;;5027314;28;20036;-79
2021/12/27 11:08:18;;;;;;;26.77;14.13;;;;;;;;;;5029800;28;20476;-78
2021/12/27 11:10:44;;;;;;;26.67;15.88;;;;;;;;;;5035879;28;20022;-79
2021/12/27 11:13:10;;;;;;;23.38;14.90;;;;;;;;;;5023576;28;20018;-78
2021/12/27 11:15:36;;;;;;;23.58;14.98;;;;;;;;;;5036270;28;20026;-78
2021/12/27 11:18:03;;;;;;;25.17;16.02;;;;;;;;;;5036068;28;20029;-78
2021/12/27 11:20:29;;;;;;;29.13;15.70;;;;;;;;;;5034839;28;20022;-78
2021/12/27 11:22:58;;;;;;;26.73;14.77;;;;;;;;;;5025011;28;20152;-78
2021/12/27 11:25:32;;;;;;;25.98;14.48;;;;;;;;;;5035831;28;20030;-78
2021/12/27 11:27:59;;;;;;;25.30;15.02;;;;;;;;;;5037349;28;20025;-79
2021/12/27 11:30:27;;;;;;;31.15;14.30;;;;;;;;;;5034857;28;20029;-78
2021/12/27 11:33:12;;;;;;;25.63;14.52;;;;;;;;;;5028017;28;20087;-79
2021/12/27 11:36:02;;;;;;;24.80;14.82;;;;;;;;;;5037558;28;20035;-78
2021/12/27 11:38:34;;;;;;;24.60;13.88;;;;;;;;;;5025862;28;20120;-78
2021/12/27 11:41:02;;;;;;;22.42;14.15;;;;;;;;;;5036550;28;20101;-78
2021/12/27 11:43:47;;;;;;;26.15;14.88;;;;;;;;;;5018443;28;20026;-78
2021/12/27 11:46:13;;;;;;;27.73;15.43;;;;;;;;;;5033896;28;20025;-77
2021/12/27 11:48:50;;;;;;;22.88;14.35;;;;;;;;;;5036686;28;20080;-77
2021/12/27 11:51:17;;;;;;;38.25;16.48;;;;;;;;;;5035578;28;20116;-77
2021/12/27 11:53:49;;;;;;;22.20;13.18;;;;;;;;;;5037154;28;20112;-78
2021/12/27 11:56:17;;;;;;;26.67;15.18;;;;;;;;;;5037377;28;20025;-78
2021/12/27 11:58:45;;;;;;;20.85;12.45;;;;;;;;;;5036143;28;20113;-78
2021/12/27 12:01:20;;;;;;;20.73;13.02;;;;;;;;;;5034988;28;20129;-78
2021/12/27 12:03:46;;;;;;;23.27;13.73;;;;;;;;;;5035057;28;20021;-78
2021/12/27 12:06:31;;;;;;;26.65;16.77;;;;;;;;;;5035412;28;20026;-77
2021/12/27 12:08:57;;;;;;;21.65;13.73;;;;;;;;;;5033942;28;20092;-79
2021/12/27 12:11:33;;;;;;;25.42;14.40;;;;;;;;;;5034823;28;20032;-78
2021/12/27 12:14:19;;;;;;;26.17;14.05;;;;;;;;;;5035798;28;20079;-78
2021/12/27 12:16:49;;;;;;;20.38;13.15;;;;;;;;;;5035182;28;20093;-78
2021/12/27 12:19:15;;;;;;;22.85;14.15;;;;;;;;;;5033347;28;20036;-78
2021/12/27 12:21:47;;;;;;;20.02;12.93;;;;;;;;;;5035788;28;20026;-77
2021/12/27 12:24:14;;;;;;;24.50;13.60;;;;;;;;;;5035011;28;20034;-77
2021/12/27 12:26:54;;;;;;;21.85;13.43;;;;;;;;;;5034286;28;20048;-78
2021/12/27 12:29:20;;;;;;;29.63;13.63;;;;;;;;;;5035214;28;20104;-78
2021/12/27 12:31:47;;;;;;;23.92;13.63;;;;;;;;;;5034285;28;20041;-78
2021/12/27 12:34:20;;;;;;;24.75;14.05;;;;;;;;;;5030788;28;20029;-78
2021/12/27 12:36:46;;;;;;;;;;;;;;;;;;5037555;28;20120;-77
2021/12/27 12:39:12;;;;;;;26.60;13.35;;;;;;;;;;5035372;28;19952;-78
2021/12/27 12:41:38;;;;;;;23.38;13.82;;;;;;;;;;5035513;28;20030;-79
2021/12/27 12:44:04;;;;;;;22.85;14.02;;;;;;;;;;5033993;28;20037;-77
2021/12/27 12:46:38;;;;;;;21.23;14.00;;;;;;;;;;5030274;28;20025;-77
2021/12/27 12:49:11;;;;;;;22.20;14.75;;;;;;;;;;5031400;28;20483;-79
2021/12/27 12:51:40;;;;;;;23.48;14.07;;;;;;;;;;5034846;28;20527;-79
2021/12/27 12:54:08;;;;;;;24.95;15.15;;;;;;;;;;5035057;28;20026;-79
2021/12/27 12:56:36;;;;;;;23.88;14.07;;;;;;;;;;5036963;28;20560;-77
2021/12/27 12:59:03;;;;;;;23.27;13.63;;;;;;;;;;5032514;28;20116;-78
2021/12/27 13:01:29;;;;;;;23.75;14.93;;;;;;;;;;5034483;28;20114;-78
2021/12/27 13:03:56;;;;;;;26.65;16.60;;;;;;;;;;5035789;28;20017;-78
2021/12/27 13:06:22;;;;;;;25.23;15.77;;;;;;;;;;5030031;28;20022;-78
2021/12/27 13:08:53;;;;;;;23.48;15.23;;;;;;;;;;5014558;28;20034;-78
2021/12/27 13:11:19;;;;;;;28.13;16.67;;;;;;;;;;5016228;28;20084;-76
2021/12/27 13:13:45;;;;;;;28.92;17.08;;;;;;;;;;5033472;28;20041;-77
2021/12/27 13:16:11;;;;;;;24.75;14.35;;;;;;;;;;5032580;28;20060;-76
2021/12/27 13:18:37;;;;;;;24.40;15.55;;;;;;;;;;5032688;28;20021;-77
2021/12/27 13:21:04;;;;;;;25.27;15.45;;;;;;;;;;5028011;28;20032;-79
2021/12/27 13:23:36;;;;;;;26.13;16.00;;;;;;;;;;5029115;28;20033;-78
2021/12/27 13:26:22;;;;;;;22.25;15.70;;;;;;;;;;5033992;28;20513;-78
2021/12/27 13:28:51;;;;;;;28.05;17.10;;;;;;;;;;5034387;28;20036;-77
2021/12/27 13:31:19;;;;;;;26.60;17.83;;;;;;;;;;5033728;28;20580;-78
2021/12/27 13:34:05;;;;;;;28.55;16.08;;;;;;;;;;5033303;28;20030;-78
2021/12/27 13:36:34;;;;;;;30.73;17.02;;;;;;;;;;5031597;28;20026;-77
2021/12/27 13:39:09;;;;;;;25.27;16.67;;;;;;;;;;5032206;28;20051;-80
2021/12/27 13:41:37;;;;;;;27.85;16.88;;;;;;;;;;5035141;28;20025;-78
2021/12/27 13:44:05;;;;;;;28.88;16.95;;;;;;;;;;5033348;28;20111;-77
2021/12/27 13:46:37;;;;;;;30.33;16.70;;;;;;;;;;5033957;28;20395;-79
2021/12/27 13:49:04;;;;;;;25.80;16.73;;;;;;;;;;5033303;28;20031;-77
2021/12/27 13:51:32;;;;;;;24.75;17.00;;;;;;;;;;5035512;28;20504;-77
2021/12/27 13:53:59;;;;;;;27.40;17.10;;;;;;;;;;5018359;28;20029;-77
2021/12/27 13:56:27;;;;;;;30.30;16.80;;;;;;;;;;5028600;28;20021;-78
2021/12/27 13:58:53;;;;;;;28.13;17.25;;;;;;;;;;5035930;28;20030;-77
2021/12/27 14:01:21;;;;;;;26.10;17.77;;;;;;;;;;5040548;28;20100;-78
2021/12/27 14:03:49;;;;;;;28.05;16.52;;;;;;;;;;5038888;28;20068;-78
2021/12/27 14:06:15;;;;;;;24.60;16.70;;;;;;;;;;5032852;28;20395;-78
2021/12/27 14:09:00;;;;;;;26.00;16.50;;;;;;;;;;5037331;28;20029;-78
2021/12/27 14:11:27;;;;;;;29.55;16.60;;;;;;;;;;5038009;28;20045;-78
2021/12/27 14:14:01;;;;;;;27.83;16.35;;;;;;;;;;5037662;28;20033;-78
2021/12/27 14:16:32;;;;;;;29.48;17.35;;;;;;;;;;5039026;28;20412;-78
2021/12/27 14:19:14;;;;;;;26.33;16.92;;;;;;;;;;5036842;28;20119;-77
2021/12/27 14:21:59;;;;;;;29.63;17.38;;;;;;;;;;5037696;28;20050;-77
2021/12/27 14:24:35;;;;;;;27.88;15.10;;;;;;;;;;5037639;28;20022;-78
2021/12/27 14:27:04;;;;;;;28.70;16.92;;;;;;;;;;5038529;28;20017;-78
2021/12/27 14:29:30;;;;;;;30.58;16.02;;;;;;;;;;5038553;28;20498;-78
2021/12/27 14:31:58;;;;;;;29.10;17.88;;;;;;;;;;5037951;28;20515;-77